Time;durP1;ratioP1;P1;durP2;ratioP2;P2;SDS_P1;SDS_P2;PMS_P1;PMS_P2;Temp;Humidity;BMP_temperature;BMP_pressure;BME280_temperature;BME280_humidity;BME280_pressure;Samples;Min_cycle;Max_cycle;Signal;HPM_P1;HPM_P2
2021/12/16 00:01:48;;;;;;;3.85;3.55;;;9.30;99.90;;;;;;5089533;28;20077;-70
2021/12/16 00:07:38;;;;;;;3.25;2.95;;;9.20;99.90;;;;;;5095050;28;20024;-69
2021/12/16 00:10:00;;;;;;;9.65;4.03;;;9.20;99.90;;;;;;5075488;28;20036;-69
2021/12/16 00:31:58;;;;;;;5.30;4.80;;;9.00;99.90;;;;;;5089769;28;20085;-71
2021/12/16 00:34:29;;;;;;;6.38;5.10;;;9.00;99.90;;;;;;5074120;28;20032;-70
2021/12/16 00:36:56;;;;;;;7.32;5.20;;;8.90;99.90;;;;;;5095230;28;20485;-69
2021/12/16 00:39:28;;;;;;;4.72;4.28;;;8.80;99.90;;;;;;5102134;28;20059;-70
2021/12/16 00:42:01;;;;;;;5.43;4.53;;;8.80;99.90;;;;;;5085535;28;20028;-70
2021/12/16 00:49:49;;;;;;;5.28;4.57;;;8.90;99.90;;;;;;5077564;28;20032;-68
2021/12/16 00:55:24;;;;;;;6.28;5.63;;;8.80;99.90;;;;;;5093238;28;20070;-70
2021/12/16 00:57:51;;;;;;;7.07;5.75;;;8.80;99.90;;;;;;5096369;28;20059;-70
2021/12/16 01:00:18;;;;;;;7.72;6.15;;;8.80;99.90;;;;;;5090448;28;20129;-69
2021/12/16 01:08:24;;;;;;;5.38;4.88;;;8.80;99.90;;;;;;5093408;28;20020;-69
2021/12/16 01:35:43;;;;;;;4.50;3.80;;;8.80;99.90;;;;;;5089642;28;20034;-71
2021/12/16 01:51:41;;;;;;;3.65;3.10;;;8.90;99.90;;;;;;5094759;28;21271;-70
2021/12/16 01:57:11;;;;;;;3.88;3.58;;;8.80;99.90;;;;;;5093475;28;20345;-70
2021/12/16 01:59:39;;;;;;;3.33;3.03;;;8.80;99.90;;;;;;5089202;28;21109;-69
2021/12/16 02:02:36;;;;;;;3.20;2.90;;;8.90;99.90;;;;;;5098131;28;20020;-69
2021/12/16 02:10:15;;;;;;;3.45;3.15;;;9.20;99.90;;;;;;5086546;28;20016;-70
2021/12/16 02:12:56;;;;;;;2.60;2.40;;;9.30;99.90;;;;;;5095413;28;20531;-69
2021/12/16 02:32:11;;;;;;;2.60;2.40;;;9.00;99.90;;;;;;5097093;28;20036;-70
2021/12/16 02:36:53;;;;;;;3.45;3.08;;;8.80;99.90;;;;;;5077642;28;20049;-68
2021/12/16 02:39:23;;;;;;;3.15;2.92;;;9.00;99.90;;;;;;5091204;28;20071;-71
2021/12/16 02:42:05;;;;;;;12.30;3.20;;;9.10;99.90;;;;;;5091285;28;20609;-69
2021/12/16 02:48:28;;;;;;;3.83;3.53;;;9.10;99.90;;;;;;5091183;28;20080;-68
2021/12/16 02:50:07;;;;;;;3.65;3.28;;;9.00;99.90;;;;;;5097910;28;20295;-70
2021/12/16 02:52:33;;;;;;;4.05;3.50;;;8.90;99.90;;;;;;5108281;28;20297;-71
2021/12/16 02:54:59;;;;;;;3.90;3.08;;;8.90;99.90;;;;;;5098212;28;20556;-69
2021/12/16 02:57:26;;;;;;;6.00;3.17;;;8.80;99.90;;;;;;5095239;28;20058;-70
2021/12/16 02:59:53;;;;;;;4.78;4.35;;;8.80;99.90;;;;;;5090932;28;20539;-71
2021/12/16 03:02:22;;;;;;;4.03;3.63;;;8.70;99.90;;;;;;5102355;28;20485;-68
2021/12/16 03:04:50;;;;;;;4.70;4.30;;;8.60;99.90;;;;;;5095399;28;20060;-70
2021/12/16 03:07:18;;;;;;;4.20;3.80;;;8.50;99.90;;;;;;5091148;28;20479;-70
2021/12/16 03:12:45;;;;;;;5.47;4.93;;;8.40;99.90;;;;;;5102230;28;20072;-71
2021/12/16 03:20:56;;;;;;;4.57;3.67;;;8.30;99.90;;;;;;5102461;28;20523;-71
2021/12/16 03:36:46;;;;;;;3.78;3.42;;;8.50;99.90;;;;;;5084562;28;20453;-71
2021/12/16 03:39:12;;;;;;;3.80;3.50;;;8.60;99.90;;;;;;5089684;28;20068;-68
2021/12/16 03:41:38;;;;;;;3.47;3.15;;;8.60;99.90;;;;;;5095395;28;20063;-69
2021/12/16 03:44:10;;;;;;;4.30;3.90;;;8.70;99.90;;;;;;5104616;28;20072;-70
2021/12/16 03:46:47;;;;;;;5.30;3.10;;;8.70;99.90;;;;;;5093651;28;20071;-68
2021/12/16 03:49:19;;;;;;;3.05;2.75;;;8.80;99.90;;;;;;5101174;28;20473;-70
2021/12/16 03:51:56;;;;;;;3.67;3.38;;;8.90;99.90;;;;;;5096118;28;20042;-70
2021/12/16 03:54:32;;;;;;;3.97;3.03;;;8.90;99.90;;;;;;5097865;28;20069;-70
2021/12/16 03:57:07;;;;;;;3.40;3.10;;;8.90;99.90;;;;;;5094804;28;20096;-69
2021/12/16 03:59:34;;;;;;;3.78;3.42;;;8.90;99.90;;;;;;5108765;28;20189;-68
2021/12/16 04:02:05;;;;;;;3.45;3.15;;;8.90;99.90;;;;;;5096772;28;20107;-68
2021/12/16 04:04:32;;;;;;;3.70;3.40;;;8.90;99.90;;;;;;5088609;28;20052;-69
2021/12/16 04:06:58;;;;;;;3.88;2.83;;;9.00;99.90;;;;;;5107123;28;20023;-68
2021/12/16 04:09:24;;;;;;;3.72;3.42;;;9.00;99.90;;;;;;5101189;28;20086;-68
2021/12/16 04:12:07;;;;;;;3.95;3.45;;;9.00;99.90;;;;;;5078150;28;20063;-69
2021/12/16 04:14:34;;;;;;;3.17;2.97;;;8.90;99.90;;;;;;5086228;28;20035;-70
2021/12/16 04:17:03;;;;;;;3.75;3.45;;;8.90;99.90;;;;;;5094732;28;20024;-70
2021/12/16 04:19:32;;;;;;;3.25;3.00;;;8.90;99.90;;;;;;5097547;28;20027;-69
2021/12/16 04:22:09;;;;;;;3.63;3.33;;;8.90;99.90;;;;;;5098559;28;20065;-70
2021/12/16 04:24:36;;;;;;;4.47;3.55;;;9.00;99.90;;;;;;5087256;28;20108;-69
2021/12/16 04:27:03;;;;;;;4.18;3.78;;;8.90;99.90;;;;;;5099029;28;20105;-70
2021/12/16 04:29:30;;;;;;;7.10;3.85;;;9.00;99.90;;;;;;5089791;28;20458;-70
2021/12/16 04:31:58;;;;;;;4.60;4.20;;;8.90;99.90;;;;;;5092781;28;20039;-71
2021/12/16 04:34:24;;;;;;;4.18;3.78;;;8.90;99.90;;;;;;5096693;28;20039;-69
2021/12/16 04:36:51;;;;;;;4.13;3.53;;;9.00;99.90;;;;;;5095427;28;20050;-72
2021/12/16 04:39:20;;;;;;;4.68;4.28;;;9.00;99.90;;;;;;5090815;28;20031;-69
2021/12/16 04:41:47;;;;;;;3.78;3.47;;;9.00;99.90;;;;;;5096238;28;20029;-70
2021/12/16 04:44:15;;;;;;;4.45;4.05;;;9.00;99.90;;;;;;5089718;28;20067;-71
2021/12/16 04:46:43;;;;;;;5.22;4.72;;;9.00;99.90;;;;;;5082939;28;20031;-71
2021/12/16 04:49:10;;;;;;;4.57;4.20;;;9.00;99.90;;;;;;5098967;28;20024;-71
2021/12/16 04:51:39;;;;;;;4.47;3.95;;;9.00;99.90;;;;;;5101290;28;20024;-68
2021/12/16 04:54:07;;;;;;;5.50;4.15;;;9.00;99.90;;;;;;5094283;28;20050;-69
2021/12/16 04:56:34;;;;;;;4.82;4.43;;;9.00;99.90;;;;;;5092279;28;20028;-69
2021/12/16 04:59:02;;;;;;;6.05;4.60;;;9.00;99.90;;;;;;5089495;28;20024;-69
2021/12/16 05:01:28;;;;;;;4.25;3.95;;;9.00;99.90;;;;;;5096148;28;20020;-71
2021/12/16 05:03:56;;;;;;;5.07;4.20;;;9.00;99.90;;;;;;5092318;28;20358;-71
2021/12/16 05:06:22;;;;;;;4.80;4.40;;;9.00;99.90;;;;;;5093814;28;20012;-69
2021/12/16 05:08:48;;;;;;;5.13;4.60;;;9.00;99.90;;;;;;5091294;28;20035;-69
2021/12/16 05:11:15;;;;;;;4.88;4.35;;;9.00;99.90;;;;;;5089179;28;20020;-68
2021/12/16 05:13:42;;;;;;;4.68;4.28;;;9.10;99.90;;;;;;5090699;28;20273;-69
2021/12/16 05:16:08;;;;;;;6.28;5.20;;;9.00;99.90;;;;;;5102507;28;20026;-71
2021/12/16 05:18:37;;;;;;;5.25;4.75;;;9.00;99.90;;;;;;5094751;28;20028;-70
2021/12/16 05:21:16;;;;;;;5.00;4.60;;;8.90;99.90;;;;;;5090453;28;20350;-70
2021/12/16 05:26:26;;;;;;;3.70;3.40;;;8.90;99.90;;;;;;5081503;28;20073;-71
2021/12/16 05:28:58;;;;;;;4.72;4.32;;;8.90;99.90;;;;;;5096422;28;20060;-72
2021/12/16 05:31:26;;;;;;;4.53;4.17;;;8.90;99.90;;;;;;5102398;28;20361;-68
2021/12/16 05:33:54;;;;;;;7.13;4.50;;;8.80;99.90;;;;;;5088121;28;20518;-70
2021/12/16 05:36:19;;;;;;;4.03;3.70;;;8.90;99.90;;;;;;5098553;28;20043;-72
2021/12/16 05:38:46;;;;;;;5.63;4.68;;;8.80;99.90;;;;;;5089505;28;20024;-69
2021/12/16 05:41:15;;;;;;;6.22;5.68;;;8.80;99.90;;;;;;5101465;28;20055;-69
2021/12/16 05:43:42;;;;;;;8.55;4.55;;;8.90;99.90;;;;;;5092014;28;20106;-69
2021/12/16 05:46:08;;;;;;;4.38;3.65;;;8.90;99.90;;;;;;5092832;28;20032;-71
2021/12/16 05:48:37;;;;;;;4.85;4.20;;;8.80;99.90;;;;;;5090519;28;20023;-70
2021/12/16 05:51:08;;;;;;;5.45;4.90;;;8.90;99.90;;;;;;5097232;28;20031;-72
2021/12/16 05:53:34;;;;;;;4.53;4.13;;;8.80;99.90;;;;;;5099306;28;20150;-70
2021/12/16 05:56:00;;;;;;;4.00;3.65;;;8.90;99.90;;;;;;5089464;28;20015;-70
2021/12/16 05:58:27;;;;;;;6.40;4.47;;;8.90;99.90;;;;;;5095817;28;20056;-69
2021/12/16 06:01:03;;;;;;;5.43;4.47;;;9.00;99.90;;;;;;5097350;28;20051;-69
2021/12/16 06:03:30;;;;;;;4.25;3.63;;;9.00;99.90;;;;;;5096808;28;20484;-70
2021/12/16 06:05:56;;;;;;;4.75;4.15;;;8.90;99.90;;;;;;5107601;28;20450;-69
2021/12/16 06:08:22;;;;;;;4.65;4.20;;;8.90;99.90;;;;;;5098966;28;20385;-69
2021/12/16 06:13:40;;;;;;;4.65;4.20;;;9.00;99.90;;;;;;5095241;28;20270;-70
2021/12/16 06:27:02;;;;;;;6.22;4.40;;;9.10;99.90;;;;;;5097352;28;20071;-69
2021/12/16 06:29:28;;;;;;;6.50;4.80;;;9.10;99.90;;;;;;5097273;28;20027;-71
2021/12/16 06:31:55;;;;;;;5.03;4.47;;;9.10;99.90;;;;;;5099051;28;20047;-69
2021/12/16 06:34:22;;;;;;;4.70;4.30;;;9.00;99.90;;;;;;5094960;28;20044;-68
2021/12/16 06:36:48;;;;;;;5.72;5.03;;;9.00;99.90;;;;;;5096403;28;20024;-70
2021/12/16 06:39:14;;;;;;;5.93;4.53;;;9.10;99.90;;;;;;5093820;28;20117;-69
2021/12/16 06:41:40;;;;;;;5.55;4.45;;;9.20;99.90;;;;;;5094419;28;20556;-68
2021/12/16 06:44:17;;;;;;;7.63;6.38;;;9.20;99.90;;;;;;5094168;28;20103;-70
2021/12/16 06:46:45;;;;;;;13.45;5.93;;;9.20;99.90;;;;;;5094271;28;20036;-69
2021/12/16 06:49:13;;;;;;;4.47;4.07;;;9.20;99.90;;;;;;5095752;28;20158;-69
2021/12/16 06:51:53;;;;;;;7.97;5.13;;;9.10;99.90;;;;;;5100323;28;20031;-71
2021/12/16 06:54:34;;;;;;;7.40;4.68;;;9.00;99.90;;;;;;5081282;28;20031;-69
2021/12/16 06:57:17;;;;;;;6.35;3.75;;;9.00;99.90;;;;;;5079654;28;20028;-71
2021/12/16 06:59:52;;;;;;;6.25;5.50;;;9.10;99.90;;;;;;5086054;28;20040;-73
2021/12/16 07:02:46;;;;;;;10.27;5.53;;;9.10;99.90;;;;;;5091990;28;20065;-68
2021/12/16 07:05:09;;;;;;;6.63;5.93;;;9.10;99.90;;;;;;5100721;28;20451;-70
2021/12/16 07:07:35;;;;;;;5.88;4.32;;;9.20;99.90;;;;;;5099219;28;20032;-69
2021/12/16 07:10:02;;;;;;;5.95;4.68;;;9.20;99.90;;;;;;5105003;28;20538;-70
2021/12/16 07:12:35;;;;;;;5.13;3.53;;;9.40;99.90;;;;;;5106065;28;20023;-71
2021/12/16 07:15:07;;;;;;;5.03;4.43;;;9.40;99.90;;;;;;5098509;28;20028;-70
2021/12/16 07:17:33;;;;;;;5.03;3.83;;;9.50;99.90;;;;;;5093766;28;20415;-70
2021/12/16 07:19:59;;;;;;;5.65;4.50;;;9.40;99.90;;;;;;5098499;28;20054;-70
2021/12/16 07:22:24;;;;;;;9.52;5.28;;;9.50;99.90;;;;;;5092284;28;20500;-70
2021/12/16 07:24:50;;;;;;;4.78;4.38;;;9.30;99.90;;;;;;5103574;28;20077;-71
2021/12/16 07:27:16;;;;;;;4.53;4.13;;;9.40;99.90;;;;;;5098739;28;20024;-70
2021/12/16 07:29:42;;;;;;;4.15;3.78;;;9.50;99.90;;;;;;5092603;28;20032;-70
2021/12/16 07:32:08;;;;;;;3.90;3.17;;;9.60;99.90;;;;;;5098454;28;20042;-69
2021/12/16 07:34:34;;;;;;;4.35;3.95;;;9.60;99.90;;;;;;5105786;28;20390;-71
2021/12/16 07:37:04;;;;;;;4.70;4.25;;;9.50;99.90;;;;;;5093236;28;20117;-68
2021/12/16 07:39:37;;;;;;;5.03;4.00;;;9.50;99.90;;;;;;5099465;28;20036;-68
2021/12/16 07:42:05;;;;;;;4.57;4.18;;;9.40;99.90;;;;;;5096364;28;20020;-67
2021/12/16 07:44:32;;;;;;;4.95;4.30;;;9.40;99.90;;;;;;5094474;28;20111;-67
2021/12/16 07:47:01;;;;;;;6.78;4.18;;;9.30;99.90;;;;;;5097628;28;20023;-67
2021/12/16 07:49:32;;;;;;;5.32;4.05;;;9.30;99.90;;;;;;5093966;28;20026;-67
2021/12/16 07:52:00;;;;;;;5.50;3.88;;;9.40;99.90;;;;;;5098092;28;20111;-68
2021/12/16 07:54:27;;;;;;;6.28;5.15;;;9.30;99.90;;;;;;5093460;28;20020;-69
2021/12/16 07:56:55;;;;;;;5.97;4.30;;;9.40;99.90;;;;;;5097910;28;20077;-68
2021/12/16 07:59:22;;;;;;;6.28;5.05;;;9.50;99.90;;;;;;5096601;28;20139;-68
2021/12/16 08:01:48;;;;;;;4.85;4.47;;;9.50;99.90;;;;;;5101108;28;20032;-68
2021/12/16 08:04:20;;;;;;;6.75;4.30;;;9.50;99.90;;;;;;5101000;28;20466;-67
2021/12/16 08:06:53;;;;;;;5.68;4.50;;;9.60;99.90;;;;;;5089554;28;20106;-67
2021/12/16 08:09:19;;;;;;;7.15;5.28;;;9.70;99.90;;;;;;5091544;28;20020;-67
2021/12/16 08:11:47;;;;;;;10.63;4.05;;;9.70;99.90;;;;;;5090889;28;20062;-67
2021/12/16 08:14:13;;;;;;;11.27;4.63;;;9.80;99.90;;;;;;5092704;28;20434;-68
2021/12/16 08:16:39;;;;;;;4.43;4.03;;;9.90;99.90;;;;;;5098618;28;20054;-67
2021/12/16 08:19:06;;;;;;;4.57;4.00;;;9.90;99.90;;;;;;5095851;28;20091;-68
2021/12/16 08:21:33;;;;;;;5.15;4.65;;;10.00;99.90;;;;;;5099254;28;20066;-68
2021/12/16 08:24:01;;;;;;;4.90;4.10;;;10.00;99.90;;;;;;5095199;28;20401;-67
2021/12/16 08:26:29;;;;;;;4.30;3.83;;;10.00;99.90;;;;;;5089460;28;20028;-68
2021/12/16 08:28:57;;;;;;;5.10;4.10;;;10.10;99.90;;;;;;5101126;28;20035;-67
2021/12/16 08:31:23;;;;;;;5.88;4.47;;;10.10;99.90;;;;;;5096328;28;20031;-67
2021/12/16 08:33:49;;;;;;;6.55;4.35;;;10.10;99.90;;;;;;5104770;28;20490;-67
2021/12/16 08:36:15;;;;;;;4.43;4.03;;;10.20;99.90;;;;;;5098290;28;20063;-68
2021/12/16 08:38:44;;;;;;;4.95;3.65;;;10.20;99.90;;;;;;5099313;28;20024;-68
2021/12/16 08:41:14;;;;;;;5.65;5.05;;;10.20;99.90;;;;;;5097609;28;20019;-68
2021/12/16 08:43:41;;;;;;;6.13;4.22;;;10.20;99.90;;;;;;5089535;28;20088;-69
2021/12/16 08:46:12;;;;;;;4.18;3.75;;;10.30;99.90;;;;;;5081197;28;20020;-68
2021/12/16 08:48:40;;;;;;;4.55;4.15;;;10.20;99.90;;;;;;5095631;28;20112;-68
2021/12/16 08:51:07;;;;;;;6.28;4.13;;;10.30;99.90;;;;;;5101732;28;20095;-67
2021/12/16 08:53:33;;;;;;;4.85;4.45;;;10.40;99.90;;;;;;5101386;28;20402;-68
2021/12/16 08:55:59;;;;;;;8.85;4.25;;;10.30;99.90;;;;;;5090930;28;20080;-67
2021/12/16 08:58:26;;;;;;;8.43;4.53;;;10.30;99.90;;;;;;5095836;28;20421;-68
2021/12/16 09:01:14;;;;;;;3.88;3.58;;;10.30;99.90;;;;;;5100641;28;20031;-67
2021/12/16 09:03:40;;;;;;;4.65;4.07;;;10.30;99.90;;;;;;5098237;28;20067;-68
2021/12/16 09:06:06;;;;;;;6.85;4.13;;;10.30;99.90;;;;;;5095427;28;20496;-68
2021/12/16 09:08:32;;;;;;;5.35;4.45;;;10.30;99.90;;;;;;5095353;28;20024;-68
2021/12/16 09:11:03;;;;;;;5.10;4.60;;;10.40;99.90;;;;;;5102438;28;20012;-68
2021/12/16 09:13:29;;;;;;;9.25;4.57;;;10.50;99.90;;;;;;5103602;28;20026;-69
2021/12/16 09:15:59;;;;;;;5.72;5.20;;;10.60;99.90;;;;;;5092347;28;20023;-70
2021/12/16 09:18:28;;;;;;;5.15;3.85;;;10.60;99.90;;;;;;5080535;28;20033;-69
2021/12/16 09:20:56;;;;;;;5.22;4.70;;;10.60;99.90;;;;;;5080622;28;20024;-69
2021/12/16 09:23:22;;;;;;;5.85;3.58;;;10.70;99.90;;;;;;5086892;28;20032;-68
2021/12/16 09:25:49;;;;;;;5.38;4.13;;;10.60;99.90;;;;;;5099611;28;20057;-67
2021/12/16 09:28:19;;;;;;;8.18;4.38;;;10.60;99.90;;;;;;5090347;28;20169;-68
2021/12/16 09:30:45;;;;;;;5.10;3.65;;;10.60;99.90;;;;;;5091142;28;20028;-68
2021/12/16 09:33:15;;;;;;;7.15;3.80;;;10.70;99.90;;;;;;5087344;28;20016;-69
2021/12/16 09:35:43;;;;;;;5.07;4.55;;;10.60;99.90;;;;;;5103331;28;20027;-69
2021/12/16 09:38:10;;;;;;;4.53;4.10;;;10.60;99.90;;;;;;5091203;28;20369;-70
2021/12/16 09:40:44;;;;;;;3.80;3.50;;;10.60;99.90;;;;;;5090635;28;20169;-70
2021/12/16 09:43:11;;;;;;;4.38;3.75;;;10.60;99.90;;;;;;5090616;28;20032;-69
2021/12/16 09:45:36;;;;;;;5.80;4.22;;;10.60;99.90;;;;;;5075307;28;20121;-69
2021/12/16 09:48:02;;;;;;;4.60;4.10;;;10.60;99.90;;;;;;5089250;28;20061;-69
2021/12/16 09:50:30;;;;;;;4.97;4.43;;;10.70;99.90;;;;;;5083478;28;20023;-69
2021/12/16 09:52:57;;;;;;;3.65;3.35;;;10.80;99.90;;;;;;5079758;28;20039;-68
2021/12/16 09:55:23;;;;;;;4.00;3.60;;;10.90;99.90;;;;;;5095174;28;20023;-68
2021/12/16 09:57:51;;;;;;;10.35;3.83;;;10.90;99.90;;;;;;5078475;28;20028;-71
2021/12/16 10:00:22;;;;;;;3.72;2.97;;;10.90;99.90;;;;;;5070622;28;20382;-70
2021/12/16 10:02:49;;;;;;;3.65;3.35;;;10.90;99.90;;;;;;5072512;28;20458;-68
2021/12/16 10:05:16;;;;;;;4.80;4.30;;;10.90;99.90;;;;;;5070583;28;20147;-67
2021/12/16 10:07:41;;;;;;;3.90;3.60;;;10.90;99.90;;;;;;5085357;28;20447;-68
2021/12/16 10:10:13;;;;;;;4.93;3.80;;;11.00;99.90;;;;;;5089795;28;20028;-67
2021/12/16 10:12:42;;;;;;;;;;;11.10;99.90;;;;;;5090869;28;20059;-68
2021/12/16 10:17:56;;;;;;;5.07;4.57;;;11.10;99.90;;;;;;5070182;28;20047;-67
2021/12/16 10:20:35;;;;;;;8.23;4.13;;;11.20;99.90;;;;;;5081695;28;20081;-68
2021/12/16 10:23:18;;;;;;;5.22;3.70;;;11.20;99.90;;;;;;5090547;28;20020;-68
2021/12/16 10:25:48;;;;;;;3.67;3.30;;;11.10;99.90;;;;;;5083661;28;20112;-66
2021/12/16 10:28:23;;;;;;;4.38;3.97;;;11.00;99.90;;;;;;5068793;28;20021;-68
2021/12/16 10:30:55;;;;;;;3.72;3.42;;;11.10;99.90;;;;;;5069944;28;20473;-68
2021/12/16 10:33:41;;;;;;;5.00;4.47;;;11.00;99.90;;;;;;5070443;28;20032;-68
2021/12/16 10:36:33;;;;;;;4.88;3.97;;;11.10;99.90;;;;;;5069862;28;20025;-68
2021/12/16 10:39:19;;;;;;;7.93;4.15;;;11.20;99.90;;;;;;5071129;28;20033;-68
2021/12/16 10:41:52;;;;;;;3.95;3.60;;;11.20;99.90;;;;;;5070044;28;20037;-68
2021/12/16 10:44:21;;;;;;;4.70;3.63;;;11.20;99.90;;;;;;5074273;28;20282;-69
2021/12/16 10:46:59;;;;;;;4.15;3.75;;;11.10;99.90;;;;;;5087824;28;20020;-69
2021/12/16 10:49:32;;;;;;;3.92;3.63;;;11.20;99.90;;;;;;5090853;28;20035;-68
2021/12/16 10:52:03;;;;;;;4.00;3.30;;;11.10;99.90;;;;;;5075506;28;20055;-70
2021/12/16 10:54:38;;;;;;;3.47;2.77;;;11.20;99.90;;;;;;5098178;28;20117;-68
2021/12/16 10:57:12;;;;;;;4.28;3.70;;;11.10;99.90;;;;;;5069920;28;20431;-70
2021/12/16 10:59:51;;;;;;;3.72;3.30;;;11.10;99.90;;;;;;5070582;28;20028;-67
2021/12/16 11:02:17;;;;;;;4.32;4.03;;;11.00;99.90;;;;;;5069854;28;20124;-68
2021/12/16 11:04:42;;;;;;;5.63;4.32;;;11.10;99.90;;;;;;5087821;28;20120;-69
2021/12/16 11:07:11;;;;;;;5.75;3.42;;;11.20;99.90;;;;;;5069684;28;20402;-69
2021/12/16 11:09:41;;;;;;;3.58;3.28;;;11.20;99.90;;;;;;5102354;28;20028;-69
2021/12/16 11:12:36;;;;;;;5.78;4.78;;;11.20;99.90;;;;;;5069848;28;20389;-68
2021/12/16 11:15:25;;;;;;;4.25;3.85;;;11.30;99.90;;;;;;5076948;28;20135;-69
2021/12/16 11:18:07;;;;;;;4.18;3.88;;;11.40;99.90;;;;;;5093319;28;20029;-68
2021/12/16 11:20:41;;;;;;;4.80;4.13;;;11.20;99.90;;;;;;5100453;28;20057;-68
2021/12/16 11:23:13;;;;;;;6.13;4.22;;;11.20;99.90;;;;;;5095575;28;20024;-68
2021/12/16 11:25:43;;;;;;;;;;;11.30;99.90;;;;;;5090595;28;20024;-69
2021/12/16 11:28:12;;;;;;;7.57;4.55;;;11.40;99.90;;;;;;5092027;28;19908;-68
2021/12/16 11:31:06;;;;;;;4.20;3.78;;;11.60;99.90;;;;;;5109263;28;20081;-68
2021/12/16 11:33:38;;;;;;;5.60;4.72;;;11.60;99.90;;;;;;5110731;28;20400;-69
2021/12/16 11:36:06;;;;;;;3.65;3.35;;;11.60;99.90;;;;;;5088659;28;20028;-69
2021/12/16 11:38:44;;;;;;;5.75;5.25;;;11.50;99.90;;;;;;5093069;28;20047;-70
2021/12/16 11:41:24;;;;;;;3.65;3.35;;;11.60;99.90;;;;;;5074921;28;20134;-70
2021/12/16 11:43:57;;;;;;;3.45;3.15;;;11.60;99.90;;;;;;5075765;28;20103;-68
2021/12/16 11:46:25;;;;;;;4.60;4.18;;;11.50;99.90;;;;;;5072702;28;20055;-69
2021/12/16 11:48:55;;;;;;;3.13;2.83;;;11.50;99.90;;;;;;5071566;28;20024;-69
2021/12/16 11:51:34;;;;;;;3.20;2.90;;;11.60;99.90;;;;;;5072996;28;20024;-69
2021/12/16 11:54:05;;;;;;;3.33;3.03;;;11.40;99.90;;;;;;5079344;28;20020;-68
2021/12/16 11:56:43;;;;;;;3.53;3.22;;;11.40;99.90;;;;;;5081021;28;20066;-69
2021/12/16 11:59:10;;;;;;;6.10;3.55;;;11.50;99.90;;;;;;5080076;28;20033;-70
2021/12/16 12:01:39;;;;;;;2.92;2.63;;;11.40;99.90;;;;;;5104505;28;20024;-68
2021/12/16 12:04:08;;;;;;;2.75;2.55;;;11.50;99.90;;;;;;5072491;28;20032;-68
2021/12/16 12:06:36;;;;;;;2.70;2.47;;;11.40;99.90;;;;;;5072541;28;20017;-68
2021/12/16 12:09:05;;;;;;;3.50;3.17;;;11.40;99.90;;;;;;5073529;28;20028;-70
2021/12/16 12:11:35;;;;;;;7.13;3.13;;;11.50;99.90;;;;;;5073835;28;20413;-70
2021/12/16 12:14:17;;;;;;;4.18;3.78;;;11.60;99.90;;;;;;5074076;28;20038;-70
2021/12/16 12:16:46;;;;;;;5.72;3.63;;;11.70;99.90;;;;;;5082530;28;20050;-70
2021/12/16 12:19:18;;;;;;;4.03;3.63;;;11.60;99.90;;;;;;5086543;28;20067;-70
2021/12/16 12:21:50;;;;;;;3.60;3.30;;;11.70;99.90;;;;;;5072357;28;20028;-69
2021/12/16 12:24:43;;;;;;;6.10;2.40;;;11.70;99.90;;;;;;5072523;28;20039;-69
2021/12/16 12:27:12;;;;;;;2.78;2.58;;;11.80;99.90;;;;;;5072743;28;20076;-69
2021/12/16 12:29:43;;;;;;;5.10;2.97;;;11.60;99.90;;;;;;5072684;28;20017;-69
2021/12/16 12:32:12;;;;;;;3.17;2.33;;;11.60;99.90;;;;;;5071661;28;20283;-69
2021/12/16 12:34:48;;;;;;;3.10;1.88;;;11.60;99.90;;;;;;5071683;28;20057;-69
2021/12/16 12:37:18;;;;;;;2.97;2.30;;;11.60;99.90;;;;;;5087995;28;20024;-68
2021/12/16 12:39:48;;;;;;;2.78;2.58;;;11.50;99.90;;;;;;5091910;28;20027;-69
2021/12/16 12:42:14;;;;;;;2.10;1.90;;;11.50;99.90;;;;;;5086246;28;20021;-68
2021/12/16 12:44:41;;;;;;;3.25;2.95;;;11.50;99.90;;;;;;5097380;28;20023;-69
2021/12/16 12:47:12;;;;;;;2.80;2.15;;;11.50;99.90;;;;;;5112102;28;20027;-69
2021/12/16 12:49:39;;;;;;;3.10;2.80;;;11.50;99.90;;;;;;5112205;28;20043;-69
2021/12/16 12:52:14;;;;;;;2.95;2.08;;;11.50;99.90;;;;;;5100177;28;20797;-69
2021/12/16 12:54:46;;;;;;;3.65;2.35;;;11.40;99.90;;;;;;5079671;28;20035;-68
2021/12/16 12:57:23;;;;;;;3.50;2.83;;;11.50;99.90;;;;;;5100527;28;20032;-68
2021/12/16 12:59:49;;;;;;;3.60;2.92;;;11.50;99.90;;;;;;5091596;28;20047;-69
2021/12/16 13:02:20;;;;;;;2.45;2.17;;;11.40;99.90;;;;;;5092058;28;20378;-68
2021/12/16 13:05:21;;;;;;;2.63;2.42;;;11.40;99.90;;;;;;5087319;28;20060;-69
2021/12/16 13:08:04;;;;;;;2.03;1.92;;;11.40;99.90;;;;;;5091858;28;20032;-69
2021/12/16 13:10:35;;;;;;;2.05;1.90;;;11.40;99.90;;;;;;5085976;28;20060;-68
2021/12/16 13:27:37;;;;;;;2.60;2.38;;;11.40;99.90;;;;;;5100727;28;20097;-69
2021/12/16 13:32:41;;;;;;;2.50;2.30;;;11.50;99.90;;;;;;5096157;28;20043;-69
2021/12/16 13:37:48;;;;;;;2.58;2.03;;;11.40;99.90;;;;;;5104496;28;20027;-69
2021/12/16 13:40:14;;;;;;;5.70;2.63;;;11.40;99.90;;;;;;5078680;28;20093;-68
2021/12/16 13:42:43;;;;;;;3.72;2.90;;;11.40;99.90;;;;;;5088990;28;20032;-68
2021/12/16 13:45:21;;;;;;;2.00;1.90;;;11.50;99.90;;;;;;5098082;28;20023;-72
2021/12/16 14:02:08;;;;;;;2.97;2.50;;;11.40;99.90;;;;;;5080465;28;20439;-68
2021/12/16 14:10:00;;;;;;;;;;;11.50;99.90;;;;;;5090229;28;20428;-69
2021/12/16 14:15:19;;;;;;;2.90;2.20;;;11.50;99.90;;;;;;5080041;28;20039;-68
2021/12/16 14:17:54;;;;;;;3.15;2.40;;;11.50;99.90;;;;;;5090514;28;20520;-69
2021/12/16 14:23:52;;;;;;;3.00;2.80;;;11.40;99.90;;;;;;5080813;28;20035;-69
2021/12/16 14:26:38;;;;;;;3.28;2.00;;;11.40;99.90;;;;;;5070589;28;20025;-69
2021/12/16 14:34:52;;;;;;;2.17;2.00;;;11.40;99.90;;;;;;5090500;28;20020;-69
2021/12/16 14:37:21;;;;;;;2.40;2.20;;;11.30;99.90;;;;;;5089520;28;20111;-69
2021/12/16 14:45:25;;;;;;;3.17;2.30;;;11.20;99.90;;;;;;5090410;28;20069;-68
2021/12/16 14:48:06;;;;;;;4.40;2.30;;;11.20;99.90;;;;;;5099526;28;20580;-68
2021/12/16 14:50:46;;;;;;;2.70;2.50;;;11.20;99.90;;;;;;5095485;28;20020;-69
2021/12/16 14:53:19;;;;;;;3.10;1.88;;;11.10;99.90;;;;;;5089058;28;20039;-69
2021/12/16 14:55:46;;;;;;;1.63;1.52;;;11.10;99.90;;;;;;5098897;28;20389;-69
2021/12/16 14:58:12;;;;;;;2.33;1.98;;;11.10;99.90;;;;;;5097174;28;20036;-69
2021/12/16 15:00:45;;;;;;;3.70;2.38;;;11.00;99.90;;;;;;5101536;28;20464;-68
2021/12/16 15:03:18;;;;;;;2.33;2.10;;;11.00;99.90;;;;;;5099365;28;20560;-70
2021/12/16 15:06:19;;;;;;;2.47;2.28;;;11.00;99.90;;;;;;5097990;28;20074;-68
2021/12/16 15:09:05;;;;;;;3.15;2.85;;;10.90;99.90;;;;;;5094904;28;20043;-68
2021/12/16 15:11:38;;;;;;;2.97;2.60;;;10.90;99.90;;;;;;5090431;28;20020;-68
2021/12/16 15:14:19;;;;;;;1.90;1.77;;;10.90;99.90;;;;;;5097653;28;20027;-70
2021/12/16 15:40:10;;;;;;;3.33;2.75;;;10.30;99.90;;;;;;5088210;28;20103;-69
2021/12/16 15:45:23;;;;;;;3.08;2.65;;;10.20;99.90;;;;;;5103755;28;20026;-68
2021/12/16 15:47:56;;;;;;;6.85;2.72;;;10.10;99.90;;;;;;5094795;28;20027;-69
2021/12/16 15:50:44;;;;;;;4.07;2.92;;;10.10;99.90;;;;;;5100006;28;20080;-68
2021/12/16 15:53:14;;;;;;;2.70;2.42;;;10.10;99.90;;;;;;5102935;28;20023;-68
2021/12/16 15:55:46;;;;;;;2.95;2.65;;;10.10;99.90;;;;;;5104674;28;20038;-69
2021/12/16 15:58:19;;;;;;;3.67;2.30;;;10.10;99.90;;;;;;5102523;28;20028;-70
2021/12/16 16:00:49;;;;;;;2.50;2.30;;;10.10;99.90;;;;;;5099173;28;20039;-69
2021/12/16 16:03:17;;;;;;;3.05;2.22;;;10.20;99.90;;;;;;5107573;28;20027;-69
2021/12/16 16:05:50;;;;;;;2.70;2.35;;;10.30;99.90;;;;;;5096815;28;20037;-68
2021/12/16 16:08:18;;;;;;;2.42;2.15;;;10.30;99.90;;;;;;5102345;28;20044;-67
2021/12/16 16:10:47;;;;;;;4.88;3.05;;;10.30;99.90;;;;;;5107862;28;20020;-71
2021/12/16 16:13:19;;;;;;;3.05;2.78;;;10.30;99.90;;;;;;5097314;28;20024;-68
2021/12/16 16:15:48;;;;;;;4.03;2.65;;;10.10;99.90;;;;;;5105171;28;20032;-69
2021/12/16 16:21:19;;;;;;;3.22;2.92;;;10.30;99.90;;;;;;5106804;28;20040;-69
2021/12/16 16:23:51;;;;;;;2.83;2.42;;;10.30;99.90;;;;;;5102234;28;20312;-69
2021/12/16 16:26:18;;;;;;;2.70;2.50;;;10.20;99.90;;;;;;5104845;28;20500;-69
2021/12/16 16:28:47;;;;;;;4.03;1.80;;;10.20;99.90;;;;;;5108735;28;20028;-69
2021/12/16 16:31:23;;;;;;;7.80;3.25;;;10.20;99.90;;;;;;5109086;28;20027;-69
2021/12/16 16:33:49;;;;;;;3.80;3.45;;;10.10;99.90;;;;;;5105470;28;20059;-70
2021/12/16 16:36:17;;;;;;;3.70;3.33;;;10.10;99.90;;;;;;5105135;28;20285;-67
2021/12/16 16:38:48;;;;;;;2.75;2.55;;;10.00;99.90;;;;;;5106470;28;20054;-70
2021/12/16 16:41:17;;;;;;;3.17;2.72;;;10.00;99.90;;;;;;5108430;28;20019;-70
2021/12/16 16:43:58;;;;;;;2.85;2.55;;;10.00;99.90;;;;;;5102775;28;20020;-68
2021/12/16 16:46:38;;;;;;;2.97;2.55;;;10.00;99.90;;;;;;5107155;28;20024;-69
2021/12/16 16:49:09;;;;;;;2.60;2.17;;;10.00;99.90;;;;;;5099356;28;20019;-70
2021/12/16 16:51:40;;;;;;;2.58;2.38;;;9.80;99.90;;;;;;5104452;28;20248;-69
2021/12/16 16:54:09;;;;;;;2.72;2.53;;;9.70;99.90;;;;;;5097273;28;20119;-68
2021/12/16 16:56:54;;;;;;;3.17;2.88;;;9.60;99.90;;;;;;5107919;28;20042;-69
2021/12/16 16:59:45;;;;;;;5.30;4.90;;;9.70;99.90;;;;;;5107030;28;20456;-70
2021/12/16 17:02:28;;;;;;;4.10;3.72;;;9.80;99.90;;;;;;5104830;28;20032;-68
2021/12/16 17:05:04;;;;;;;2.22;2.03;;;10.00;99.90;;;;;;5111106;28;20028;-69